createdAt,value
2022-10-23T00:02:54.822Z,4.63
2022-10-23T00:06:00.354Z,5.13
2022-10-23T00:09:06.527Z,5.30
2022-10-23T00:12:10.195Z,5.05
2022-10-23T00:15:14.500Z,5.20
2022-10-23T00:18:18.132Z,5.07
2022-10-23T00:21:23.768Z,5.18
2022-10-23T00:24:27.387Z,5.50
2022-10-23T00:27:30.977Z,5.15
2022-10-23T00:30:34.870Z,5.60
2022-10-23T00:33:38.570Z,5.03
2022-10-23T00:36:44.145Z,5.28
2022-10-23T00:39:47.793Z,5.32
2022-10-23T00:42:51.402Z,5.30
2022-10-23T00:45:55.633Z,6.38
2022-10-23T00:49:00.299Z,5.70
2022-10-23T00:52:10.217Z,5.30
2022-10-23T00:55:13.917Z,5.80
2022-10-23T00:58:19.585Z,5.60
2022-10-23T01:01:25.518Z,6.35
2022-10-23T01:04:30.685Z,6.00
2022-10-23T01:07:45.130Z,6.40
2022-10-23T01:10:54.014Z,6.68
2022-10-23T01:14:04.414Z,6.30
2022-10-23T01:17:13.982Z,6.15
2022-10-23T01:20:38.532Z,6.93
2022-10-23T01:24:19.043Z,5.97
2022-10-23T01:27:28.098Z,6.00
2022-10-23T01:30:34.977Z,6.80
2022-10-23T01:33:44.326Z,6.47
2022-10-23T01:36:50.929Z,5.72
2022-10-23T01:39:57.226Z,5.50
2022-10-23T01:43:07.508Z,6.72
2022-10-23T01:46:16.510Z,6.07
2022-10-23T01:49:24.162Z,6.22
2022-10-23T01:52:31.889Z,6.28
2022-10-23T01:55:38.117Z,6.45
2022-10-23T01:58:50.940Z,5.93
2022-10-23T02:01:58.304Z,6.35
2022-10-23T02:05:07.806Z,6.97
2022-10-23T02:08:12.020Z,6.55
2022-10-23T02:11:17.328Z,6.07
2022-10-23T02:14:30.835Z,6.85
2022-10-23T02:17:44.756Z,6.25
2022-10-23T02:20:57.041Z,5.93
2022-10-23T02:24:06.851Z,6.10
2022-10-23T02:27:18.447Z,5.60
2022-10-23T02:30:31.501Z,6.05
2022-10-23T02:33:47.335Z,6.03
2022-10-23T02:36:50.971Z,5.47
2022-10-23T02:39:56.981Z,5.68
2022-10-23T02:43:07.414Z,5.05
2022-10-23T02:46:22.598Z,5.97
2022-10-23T02:49:31.455Z,5.28
2022-10-23T02:52:42.987Z,5.38
2022-10-23T02:55:57.618Z,6.10
2022-10-23T02:59:06.116Z,6.15
2022-10-23T03:02:19.662Z,6.63
2022-10-23T03:05:27.037Z,5.32
2022-10-23T03:08:31.055Z,6.05
2022-10-23T03:11:34.717Z,6.25
2022-10-23T03:14:39.933Z,6.47
2022-10-23T03:17:46.612Z,5.80
2022-10-23T03:20:51.980Z,6.53
2022-10-23T03:23:58.918Z,6.70
2022-10-23T03:27:12.474Z,6.53
2022-10-23T03:30:16.573Z,7.30
2022-10-23T03:33:22.415Z,7.72
2022-10-23T03:36:26.117Z,6.47
2022-10-23T03:39:30.613Z,7.80
2022-10-23T03:42:34.246Z,7.20
2022-10-23T03:45:37.953Z,6.85
2022-10-23T03:48:43.494Z,6.63
2022-10-23T03:51:52.222Z,6.80
2022-10-23T03:54:57.733Z,7.00
2022-10-23T03:58:01.449Z,7.70
2022-10-23T04:01:05.438Z,7.10
2022-10-23T04:07:14.598Z,6.68
2022-10-23T04:10:18.367Z,6.75
2022-10-23T04:13:22.010Z,7.18
2022-10-23T04:16:25.795Z,7.55
2022-10-23T04:19:31.335Z,6.45
2022-10-23T04:22:35.016Z,7.05
2022-10-23T04:25:38.693Z,7.53
2022-10-23T04:28:42.410Z,8.20
2022-10-23T04:31:46.263Z,7.35
2022-10-23T04:34:51.794Z,7.15
2022-10-23T04:37:55.628Z,7.35
2022-10-23T04:41:00.317Z,7.22
2022-10-23T04:44:04.074Z,8.45
2022-10-23T04:47:10.274Z,6.70
2022-10-23T04:50:25.738Z,7.20
2022-10-23T04:53:52.234Z,6.50
2022-10-23T04:57:27.890Z,7.43
2022-10-23T05:00:40.520Z,7.47
2022-10-23T05:03:44.842Z,7.70
2022-10-23T05:06:50.606Z,10.27
2022-10-23T05:10:17.601Z,7.97
2022-10-23T05:13:33.378Z,7.82
2022-10-23T05:16:41.061Z,7.18
2022-10-23T05:19:49.150Z,8.02
2022-10-23T05:22:57.294Z,7.90
2022-10-23T05:26:02.610Z,7.50
2022-10-23T05:29:07.556Z,7.97
2022-10-23T05:32:13.495Z,7.97
2022-10-23T05:35:22.155Z,8.38
2022-10-23T05:38:31.863Z,8.70
2022-10-23T05:41:39.311Z,8.18
2022-10-23T05:44:43.460Z,8.10
2022-10-23T05:48:16.784Z,8.50
2022-10-23T05:51:44.759Z,8.85
2022-10-23T05:55:03.697Z,8.48
2022-10-23T05:58:36.262Z,8.27
2022-10-23T06:02:02.946Z,8.38
2022-10-23T06:05:24.559Z,8.98
2022-10-23T06:08:46.871Z,8.80
2022-10-23T06:11:53.130Z,8.40
2022-10-23T06:14:59.373Z,8.82
2022-10-23T06:18:16.462Z,7.65
2022-10-23T06:21:38.198Z,9.13
2022-10-23T06:24:42.263Z,8.35
2022-10-23T06:27:52.702Z,8.10
2022-10-23T06:30:56.681Z,8.43
2022-10-23T06:34:01.175Z,8.95
2022-10-23T06:37:07.460Z,9.02
2022-10-23T06:40:18.121Z,8.85
2022-10-23T06:43:36.243Z,8.75
2022-10-23T06:46:57.473Z,8.40
2022-10-23T06:50:19.421Z,8.30
2022-10-23T06:53:24.543Z,8.15
2022-10-23T06:56:35.758Z,9.18
2022-10-23T06:59:44.625Z,8.90
2022-10-23T07:02:48.301Z,9.30
2022-10-23T07:05:52.050Z,9.60
2022-10-23T07:08:55.955Z,8.15
2022-10-23T07:12:22.258Z,9.05
2022-10-23T07:15:34.126Z,8.45
2022-10-23T07:18:37.738Z,8.45
2022-10-23T07:22:19.682Z,8.88
2022-10-23T07:25:35.426Z,8.75
2022-10-23T07:31:46.515Z,8.50
2022-10-23T07:35:09.920Z,8.75
2022-10-23T07:38:17.054Z,8.80
2022-10-23T07:41:24.810Z,8.32
2022-10-23T07:44:28.492Z,7.93
2022-10-23T07:47:34.894Z,8.05
2022-10-23T07:50:40.030Z,7.75
2022-10-23T07:53:45.057Z,7.60
2022-10-23T07:57:01.220Z,8.77
2022-10-23T08:00:20.212Z,8.48
2022-10-23T08:03:35.402Z,8.70
2022-10-23T08:06:39.984Z,8.13
2022-10-23T08:09:44.189Z,7.75
2022-10-23T08:12:48.038Z,8.73
2022-10-23T08:15:55.289Z,8.23
2022-10-23T08:19:23.785Z,7.70
2022-10-23T08:22:29.769Z,8.85
2022-10-23T08:25:33.444Z,8.48
2022-10-23T08:28:37.298Z,8.93
2022-10-23T08:31:41.205Z,8.10
2022-10-23T08:34:54.274Z,8.70
2022-10-23T08:38:00.323Z,8.80
2022-10-23T08:41:13.721Z,8.77
2022-10-23T08:44:33.627Z,9.05
2022-10-23T08:47:41.186Z,8.85
2022-10-23T08:51:17.756Z,8.82
2022-10-23T08:54:24.242Z,8.40
2022-10-23T08:57:34.010Z,8.18
2022-10-23T09:00:38.184Z,9.38
2022-10-23T09:03:41.883Z,7.45
2022-10-23T09:06:57.375Z,7.70
2022-10-23T09:10:16.271Z,7.13
2022-10-23T09:13:49.874Z,6.97
2022-10-23T09:17:05.975Z,7.10
2022-10-23T09:20:17.816Z,6.47
2022-10-23T09:23:25.081Z,6.57
2022-10-23T09:26:28.702Z,6.57
2022-10-23T09:29:35.361Z,5.63
2022-10-23T09:32:39.742Z,5.43
2022-10-23T09:35:55.432Z,5.35
2022-10-23T09:39:02.055Z,5.75
2022-10-23T09:42:23.106Z,5.30
2022-10-23T09:45:30.045Z,5.43
2022-10-23T09:48:35.735Z,5.38
2022-10-23T09:51:42.085Z,5.65
2022-10-23T09:54:50.354Z,5.63
2022-10-23T09:57:55.233Z,5.32
2022-10-23T10:00:59.505Z,5.60
2022-10-23T10:04:19.625Z,4.90
2022-10-23T10:07:25.071Z,5.05
2022-10-23T10:10:38.694Z,4.93
2022-10-23T10:14:19.618Z,5.10
2022-10-23T10:17:32.821Z,5.55
2022-10-23T10:20:53.449Z,5.25
2022-10-23T10:24:03.781Z,5.10
2022-10-23T10:27:22.217Z,4.13
2022-10-23T10:30:26.921Z,4.20
2022-10-23T10:33:38.089Z,4.10
2022-10-23T10:36:52.295Z,4.03
2022-10-23T10:43:29.638Z,4.05
2022-10-23T10:46:39.487Z,4.03
2022-10-23T10:49:51.796Z,4.05
2022-10-23T10:53:10.619Z,5.13
2022-10-23T10:56:17.531Z,3.55
2022-10-23T10:59:28.505Z,3.50
2022-10-23T11:02:40.793Z,3.75
2022-10-23T11:05:48.374Z,4.25
2022-10-23T11:08:57.870Z,3.35
2022-10-23T11:12:07.875Z,3.55
2022-10-23T11:18:27.113Z,3.90
2022-10-23T11:21:39.734Z,3.38
2022-10-23T11:25:14.217Z,3.88
2022-10-23T11:28:26.802Z,3.85
2022-10-23T11:31:40.150Z,3.85
2022-10-23T11:35:06.087Z,3.10
2022-10-23T11:38:19.154Z,3.45
2022-10-23T11:41:26.924Z,3.95
2022-10-23T11:44:44.164Z,2.95
2022-10-23T11:47:58.488Z,2.97
2022-10-23T11:51:05.020Z,3.05
2022-10-23T11:54:26.646Z,3.33
2022-10-23T12:01:02.749Z,3.27
2022-10-23T12:04:22.762Z,3.47
2022-10-23T12:07:30.436Z,3.47
2022-10-23T12:10:36.630Z,3.40
2022-10-23T12:13:48.459Z,3.42
2022-10-23T12:16:52.085Z,3.63
2022-10-23T12:20:04.966Z,2.88
2022-10-23T12:23:34.819Z,4.15
2022-10-23T12:26:57.510Z,3.40
2022-10-23T12:30:17.538Z,3.58
2022-10-23T12:33:29.834Z,2.88
2022-10-23T12:36:48.825Z,3.08
2022-10-23T12:39:58.394Z,2.97
2022-10-23T12:43:02.870Z,3.50
2022-10-23T12:46:19.814Z,2.92
2022-10-23T12:49:25.290Z,2.90
2022-10-23T12:52:33.892Z,2.75
2022-10-23T12:55:50.286Z,4.38
2022-10-23T12:58:56.970Z,2.70
2022-10-23T13:02:00.885Z,3.35
2022-10-23T13:08:13.708Z,2.58
2022-10-23T13:11:37.999Z,3.08
2022-10-23T13:14:57.267Z,2.50
2022-10-23T13:18:06.419Z,2.63
2022-10-23T13:21:18.805Z,2.45
2022-10-23T13:24:27.530Z,2.78
2022-10-23T13:27:35.115Z,2.60
2022-10-23T13:30:42.056Z,2.35
2022-10-23T13:33:47.076Z,2.33
2022-10-23T13:37:00.613Z,2.70
2022-10-23T13:40:22.672Z,2.20
2022-10-23T13:43:28.308Z,2.40
2022-10-23T13:46:32.098Z,2.70
2022-10-23T13:49:35.754Z,2.47
2022-10-23T13:52:39.526Z,2.28
2022-10-23T13:55:46.632Z,2.70
2022-10-23T13:58:51.132Z,2.50
2022-10-23T14:01:56.776Z,3.00
2022-10-23T14:05:00.458Z,3.00
2022-10-23T14:08:04.200Z,3.08
2022-10-23T14:11:11.764Z,3.45
2022-10-23T14:14:15.408Z,2.40
2022-10-23T14:17:19.145Z,2.42
2022-10-23T14:20:25.675Z,2.63
2022-10-23T14:23:30.871Z,3.05
2022-10-23T14:26:37.031Z,2.35
2022-10-23T14:29:41.977Z,2.60
2022-10-23T14:32:46.039Z,2.60
2022-10-23T14:35:51.748Z,2.70
2022-10-23T14:38:58.994Z,3.15
2022-10-23T14:42:05.202Z,2.55
2022-10-23T14:45:10.193Z,3.30
2022-10-23T14:48:13.928Z,3.47
2022-10-23T14:51:21.295Z,2.22
2022-10-23T14:54:25.024Z,2.00
2022-10-23T14:57:30.578Z,2.47
2022-10-23T15:00:34.859Z,2.85
2022-10-23T15:03:38.875Z,3.08
2022-10-23T15:09:45.908Z,2.60
2022-10-23T15:12:51.578Z,2.45
2022-10-23T15:16:04.174Z,2.25
2022-10-23T15:19:09.136Z,2.60
2022-10-23T15:22:14.524Z,1.92
2022-10-23T15:25:18.434Z,1.65
2022-10-23T15:31:47.746Z,2.78
2022-10-23T15:34:53.105Z,3.05
2022-10-23T15:37:56.701Z,3.15
2022-10-23T15:41:15.043Z,3.10
2022-10-23T15:44:22.041Z,2.97
2022-10-23T15:47:25.662Z,3.35
2022-10-23T15:50:29.394Z,3.78
2022-10-23T15:53:34.234Z,5.03
2022-10-23T15:56:38.105Z,4.28
2022-10-23T15:59:43.636Z,3.13
2022-10-23T16:02:47.507Z,2.97
2022-10-23T16:05:51.457Z,2.97
2022-10-23T16:08:55.148Z,2.53
2022-10-23T16:11:58.797Z,2.35
2022-10-23T16:15:04.527Z,3.00
2022-10-23T16:18:08.291Z,2.40
2022-10-23T16:21:19.390Z,2.40
2022-10-23T16:24:23.053Z,2.72
2022-10-23T16:27:26.794Z,2.33
2022-10-23T16:30:32.834Z,2.33
2022-10-23T16:33:36.494Z,2.10
2022-10-23T16:36:41.155Z,2.30
2022-10-23T16:39:56.367Z,2.15
2022-10-23T16:43:25.794Z,3.55
2022-10-23T16:46:42.636Z,2.50
2022-10-23T16:49:46.302Z,2.35
2022-10-23T16:52:53.288Z,2.08
2022-10-23T16:55:59.752Z,2.13
2022-10-23T16:59:03.447Z,1.92
2022-10-23T17:02:10.647Z,2.38
2022-10-23T17:05:14.358Z,2.38
2022-10-23T17:08:18.056Z,2.08
2022-10-23T17:11:23.878Z,3.05
2022-10-23T17:14:30.255Z,2.90
2022-10-23T17:17:35.816Z,2.47
2022-10-23T17:20:39.427Z,2.80
2022-10-23T17:23:43.555Z,2.50
2022-10-23T17:26:47.753Z,2.78
2022-10-23T17:29:51.442Z,2.60
2022-10-23T17:32:59.499Z,3.08
2022-10-23T17:36:06.141Z,3.35
2022-10-23T17:39:11.635Z,2.97
2022-10-23T17:42:15.473Z,3.10
2022-10-23T17:45:19.162Z,2.88
2022-10-23T17:48:25.765Z,2.45
2022-10-23T17:51:31.066Z,3.03
2022-10-23T17:54:34.674Z,2.70
2022-10-23T17:57:38.293Z,3.15
2022-10-23T18:00:41.914Z,2.55
2022-10-23T18:03:47.877Z,3.17
2022-10-23T18:06:53.849Z,2.60
2022-10-23T18:09:57.478Z,2.08
2022-10-23T18:13:01.113Z,2.08
2022-10-23T18:16:05.899Z,2.67
2022-10-23T18:19:12.608Z,2.25
2022-10-23T18:22:16.242Z,2.83
2022-10-23T18:25:20.424Z,2.22
2022-10-23T18:28:24.156Z,2.80
2022-10-23T18:31:29.680Z,2.75
2022-10-23T18:34:35.218Z,2.70
2022-10-23T18:37:41.552Z,2.72
2022-10-23T18:40:45.659Z,3.78
2022-10-23T18:43:49.292Z,2.83
2022-10-23T18:46:53.656Z,2.70
2022-10-23T18:49:59.227Z,2.63
2022-10-23T18:53:02.842Z,2.50
2022-10-23T18:56:08.945Z,2.30
2022-10-23T18:59:15.203Z,2.10
2022-10-23T19:02:19.017Z,2.53
2022-10-23T19:08:28.111Z,2.60
2022-10-23T19:11:31.739Z,2.83
2022-10-23T19:14:35.496Z,2.65
2022-10-23T19:17:39.304Z,2.05
2022-10-23T19:20:45.956Z,2.40
2022-10-23T19:23:50.896Z,2.60
2022-10-23T19:26:55.547Z,2.58
2022-10-23T19:30:02.789Z,2.63
2022-10-23T19:33:06.512Z,2.42
2022-10-23T19:36:14.257Z,2.08
2022-10-23T19:39:18.667Z,2.55
2022-10-23T19:45:25.812Z,3.55
2022-10-23T19:48:29.575Z,2.88
2022-10-23T19:51:35.169Z,2.20
2022-10-23T19:54:40.480Z,2.28
2022-10-23T19:57:44.366Z,2.53
2022-10-23T20:03:52.058Z,2.50
2022-10-23T20:06:57.618Z,2.60
2022-10-23T20:10:02.165Z,2.55
2022-10-23T20:13:18.700Z,2.33
2022-10-23T20:16:26.170Z,2.05
2022-10-23T20:19:29.956Z,2.63
2022-10-23T20:22:36.349Z,2.42
2022-10-23T20:25:39.984Z,2.55
2022-10-23T20:28:46.279Z,2.38
2022-10-23T20:31:50.000Z,2.03
2022-10-23T20:34:54.106Z,2.50
2022-10-23T20:37:59.640Z,2.90
2022-10-23T20:41:05.342Z,6.20
2022-10-23T20:44:12.185Z,3.08
2022-10-23T20:47:15.840Z,2.53
2022-10-23T20:50:20.281Z,2.58
2022-10-23T20:53:25.889Z,2.80
2022-10-23T20:56:31.655Z,2.60
2022-10-23T20:59:35.537Z,2.35
2022-10-23T21:02:39.287Z,2.83
2022-10-23T21:05:42.927Z,2.88
2022-10-23T21:08:48.724Z,2.67
2022-10-23T21:11:52.479Z,2.67
2022-10-23T21:14:56.081Z,2.45
2022-10-23T21:18:07.853Z,2.60
2022-10-23T21:21:23.062Z,2.40
2022-10-23T21:24:28.824Z,2.63
2022-10-23T21:27:32.606Z,2.42
2022-10-23T21:30:37.580Z,2.50
2022-10-23T21:33:42.519Z,2.08
2022-10-23T21:37:10.776Z,2.55
2022-10-23T21:40:13.017Z,2.83
2022-10-23T21:43:16.902Z,2.35
2022-10-23T21:46:20.566Z,2.45
2022-10-23T21:49:24.178Z,2.28
2022-10-23T21:52:27.866Z,2.00
2022-10-23T21:55:33.518Z,2.38
2022-10-23T21:58:37.838Z,1.90
2022-10-23T22:01:43.394Z,2.22
2022-10-23T22:04:47.105Z,2.13
2022-10-23T22:07:50.747Z,2.03
2022-10-23T22:10:56.474Z,1.92
2022-10-23T22:14:01.097Z,2.45
2022-10-23T22:17:04.806Z,2.17
2022-10-23T22:20:09.914Z,2.85
2022-10-23T22:23:13.549Z,2.05
2022-10-23T22:26:25.175Z,2.40
2022-10-23T22:29:30.509Z,1.65
2022-10-23T22:32:35.901Z,2.00
2022-10-23T22:35:39.583Z,1.75
2022-10-23T22:38:43.238Z,1.63
2022-10-23T22:41:48.874Z,1.48
2022-10-23T22:44:52.526Z,1.63
2022-10-23T22:47:56.170Z,1.75
2022-10-23T22:50:59.858Z,1.98
2022-10-23T22:54:03.490Z,2.53
2022-10-23T22:57:09.034Z,1.58
2022-10-23T23:00:13.886Z,2.70
2022-10-23T23:03:18.161Z,2.65
2022-10-23T23:06:22.819Z,1.70
2022-10-23T23:09:26.494Z,1.77
2022-10-23T23:12:32.142Z,2.45
2022-10-23T23:15:40.720Z,2.20
2022-10-23T23:18:44.316Z,2.40
2022-10-23T23:21:47.946Z,1.77
2022-10-23T23:24:51.602Z,2.33
2022-10-23T23:27:57.246Z,2.20
2022-10-23T23:31:05.333Z,2.42
2022-10-23T23:34:08.982Z,2.60
2022-10-23T23:37:12.628Z,2.35
2022-10-23T23:40:16.263Z,2.50
2022-10-23T23:43:22.406Z,2.20
2022-10-23T23:46:26.313Z,2.22
2022-10-23T23:52:33.650Z,2.50
2022-10-23T23:58:43.218Z,1.95
